Time;durP1;ratioP1;P1;durP2;ratioP2;P2;SDS_P1;SDS_P2;PMS_P1;PMS_P2;Temp;Humidity;BMP_temperature;BMP_pressure;BME280_temperature;BME280_humidity;BME280_pressure;Samples;Min_cycle;Max_cycle;Signal;HPM_P1;HPM_P2
2024/02/27 00:02:12;;;;;;;4.83;3.27;;;7.40;99.90;;;;;;4988997;28;20226;-71
2024/02/27 00:04:41;;;;;;;3.90;3.00;;;7.40;99.90;;;;;;4989280;28;20202;-71
2024/02/27 00:07:08;;;;;;;3.17;2.97;;;7.40;99.90;;;;;;4988466;28;20346;-71
2024/02/27 00:09:35;;;;;;;2.63;2.43;;;7.30;99.90;;;;;;4989069;28;20325;-71
2024/02/27 00:12:02;;;;;;;3.00;2.70;;;7.30;99.90;;;;;;4975182;28;20221;-71
2024/02/27 00:14:29;;;;;;;3.00;2.80;;;7.30;99.90;;;;;;4969623;28;20272;-71
2024/02/27 00:16:55;;;;;;;2.97;2.60;;;7.30;99.90;;;;;;4971250;28;20230;-71
2024/02/27 00:19:22;;;;;;;2.87;2.67;;;7.20;99.90;;;;;;4976708;28;20321;-71
2024/02/27 00:21:51;;;;;;;3.43;3.03;;;7.20;99.90;;;;;;4969459;28;20211;-71
2024/02/27 00:24:17;;;;;;;3.07;2.87;;;7.20;99.90;;;;;;4969435;28;20211;-71
2024/02/27 00:26:44;;;;;;;3.20;2.90;;;7.20;99.90;;;;;;4969171;28;20217;-71
2024/02/27 00:29:11;;;;;;;3.43;3.23;;;7.20;99.90;;;;;;4969588;28;20224;-71
2024/02/27 00:31:38;;;;;;;3.70;3.00;;;7.10;99.90;;;;;;4970551;28;20808;-71
2024/02/27 00:34:05;;;;;;;3.47;3.17;;;7.10;99.90;;;;;;4974591;28;20207;-71
2024/02/27 00:36:32;;;;;;;3.63;3.20;;;7.10;99.90;;;;;;4988372;28;20760;-71
2024/02/27 00:39:00;;;;;;;3.40;3.20;;;7.10;99.90;;;;;;4988658;28;20237;-71
2024/02/27 00:41:27;;;;;;;4.83;3.80;;;7.10;99.90;;;;;;4988431;28;20234;-71
2024/02/27 00:43:53;;;;;;;3.27;3.07;;;7.10;99.90;;;;;;4987928;28;20293;-71
2024/02/27 00:46:20;;;;;;;3.87;3.50;;;7.20;99.90;;;;;;4988356;28;20285;-71
2024/02/27 00:48:47;;;;;;;3.57;3.37;;;7.10;99.90;;;;;;4981029;28;20371;-71
2024/02/27 00:51:14;;;;;;;3.83;3.53;;;7.10;99.90;;;;;;4968402;28;20683;-71
2024/02/27 00:53:41;;;;;;;3.43;3.13;;;7.20;99.90;;;;;;4968867;28;20298;-71
2024/02/27 00:56:10;;;;;;;3.77;3.30;;;7.10;99.90;;;;;;4968766;28;20211;-71
2024/02/27 00:58:36;;;;;;;4.17;3.77;;;7.10;99.90;;;;;;4970071;28;20257;-71
2024/02/27 01:01:03;;;;;;;3.63;3.30;;;7.10;99.90;;;;;;4985187;28;20234;-71
2024/02/27 01:03:30;;;;;;;3.90;3.57;;;7.10;99.90;;;;;;4968794;28;20245;-71
2024/02/27 01:05:57;;;;;;;3.73;3.43;;;7.10;99.90;;;;;;4968550;28;20211;-72
2024/02/27 01:08:24;;;;;;;4.00;3.60;;;7.10;99.90;;;;;;4982169;28;20225;-72
2024/02/27 01:10:51;;;;;;;3.77;3.43;;;7.10;99.90;;;;;;4987804;28;20297;-72
2024/02/27 01:13:19;;;;;;;3.93;3.63;;;7.10;99.90;;;;;;4987606;28;20253;-71
2024/02/27 01:15:46;;;;;;;4.13;3.77;;;7.10;99.90;;;;;;4987960;28;20210;-71
2024/02/27 01:18:13;;;;;;;4.03;3.70;;;7.10;99.90;;;;;;4987771;28;20333;-71
2024/02/27 01:20:40;;;;;;;4.27;3.87;;;7.00;99.90;;;;;;4987802;28;20230;-70
2024/02/27 01:23:06;;;;;;;3.87;3.60;;;7.00;99.90;;;;;;4987438;28;20206;-71
2024/02/27 01:25:33;;;;;;;5.30;3.80;;;7.00;99.90;;;;;;4987950;28;20771;-71
2024/02/27 01:28:00;;;;;;;3.23;3.03;;;7.00;99.90;;;;;;4987720;28;20297;-71
2024/02/27 01:30:28;;;;;;;3.90;3.07;;;7.00;99.90;;;;;;4987237;28;20214;-71
2024/02/27 01:32:55;;;;;;;3.80;3.50;;;7.00;99.90;;;;;;4987534;28;20225;-71
2024/02/27 01:35:22;;;;;;;3.90;3.60;;;7.00;99.90;;;;;;4982078;28;20699;-71
2024/02/27 01:37:49;;;;;;;4.13;3.57;;;6.90;99.90;;;;;;4986809;28;20221;-71
2024/02/27 01:40:16;;;;;;;4.00;3.70;;;6.90;99.90;;;;;;4987582;28;20248;-71
2024/02/27 01:42:44;;;;;;;3.67;3.37;;;6.90;99.90;;;;;;4987620;28;20617;-71
2024/02/27 01:45:18;;;;;;;4.17;3.80;;;6.90;99.90;;;;;;4987200;28;20226;-71
2024/02/27 01:47:47;;;;;;;4.17;3.80;;;6.90;99.90;;;;;;4987542;28;20241;-70
2024/02/27 01:50:17;;;;;;;3.57;3.37;;;6.90;99.90;;;;;;4987316;28;20578;-71
2024/02/27 01:52:44;;;;;;;3.80;3.50;;;6.80;99.90;;;;;;4987254;28;20241;-71
2024/02/27 01:55:11;;;;;;;3.70;3.40;;;6.80;99.90;;;;;;4987091;28;20301;-70
2024/02/27 01:57:40;;;;;;;4.00;3.63;;;6.80;99.90;;;;;;4986965;28;20296;-70
2024/02/27 02:00:09;;;;;;;4.07;3.70;;;6.80;99.90;;;;;;4987419;28;21285;-71
2024/02/27 02:02:37;;;;;;;3.80;3.50;;;6.80;99.90;;;;;;4987454;28;20253;-71
2024/02/27 02:05:05;;;;;;;4.03;3.73;;;6.80;99.90;;;;;;4969649;28;20213;-70
2024/02/27 02:07:35;;;;;;;4.40;3.57;;;6.80;99.90;;;;;;4967940;28;20211;-70
2024/02/27 02:10:02;;;;;;;3.70;3.40;;;6.70;99.90;;;;;;4974637;28;20210;-71
2024/02/27 02:12:29;;;;;;;3.93;3.63;;;6.70;99.90;;;;;;4987513;28;20203;-71
2024/02/27 02:14:56;;;;;;;4.07;3.77;;;6.70;99.90;;;;;;4987631;28;20206;-70
2024/02/27 02:17:23;;;;;;;4.43;3.50;;;6.70;99.90;;;;;;4987184;28;20312;-72
2024/02/27 02:19:50;;;;;;;3.73;3.37;;;6.70;99.90;;;;;;4971801;28;20269;-71
2024/02/27 02:22:18;;;;;;;4.10;3.70;;;6.70;99.90;;;;;;4967553;28;20222;-72
2024/02/27 02:24:45;;;;;;;3.90;3.60;;;6.70;99.90;;;;;;4976162;28;20245;-71
2024/02/27 02:27:15;;;;;;;3.93;3.47;;;6.70;99.90;;;;;;4986994;28;20264;-71
2024/02/27 02:29:42;;;;;;;3.87;3.57;;;6.70;99.90;;;;;;4987798;28;20225;-72
2024/02/27 02:32:09;;;;;;;3.33;3.13;;;6.60;99.90;;;;;;4987370;28;20214;-71
2024/02/27 02:34:36;;;;;;;4.00;3.70;;;6.60;99.90;;;;;;4987422;28;20305;-71
2024/02/27 02:37:03;;;;;;;4.10;3.63;;;6.70;99.90;;;;;;4986793;28;20748;-71
2024/02/27 02:39:31;;;;;;;4.43;3.40;;;6.60;99.90;;;;;;4978008;28;20231;-71
2024/02/27 02:41:58;;;;;;;3.87;3.57;;;6.60;99.90;;;;;;4967311;28;20570;-71
2024/02/27 02:44:25;;;;;;;3.97;3.57;;;6.60;99.90;;;;;;4967582;28;20675;-71
2024/02/27 02:46:51;;;;;;;4.00;3.60;;;6.60;99.90;;;;;;4967680;28;20860;-71
2024/02/27 02:49:18;;;;;;;3.63;3.30;;;6.60;99.90;;;;;;4978423;28;20349;-71
2024/02/27 02:51:45;;;;;;;4.83;3.83;;;6.50;99.90;;;;;;4984870;28;20249;-71
2024/02/27 02:54:12;;;;;;;4.43;4.03;;;6.50;99.90;;;;;;4988961;28;20209;-71
2024/02/27 02:56:40;;;;;;;5.17;3.73;;;6.50;99.90;;;;;;5006827;28;20225;-71
2024/02/27 02:59:07;;;;;;;3.97;3.67;;;6.60;99.90;;;;;;5006255;28;20294;-71
2024/02/27 03:01:34;;;;;;;4.10;3.80;;;6.50;99.90;;;;;;4986880;28;20317;-71
2024/02/27 03:04:01;;;;;;;5.13;4.10;;;6.60;99.90;;;;;;4986909;28;20711;-71
2024/02/27 03:06:27;;;;;;;4.50;4.10;;;6.60;99.90;;;;;;4986889;28;20691;-71
2024/02/27 03:08:54;;;;;;;4.30;3.90;;;6.60;99.90;;;;;;4989992;28;20206;-71
2024/02/27 03:11:21;;;;;;;3.60;3.30;;;6.60;99.90;;;;;;4990044;28;20332;-71
2024/02/27 03:13:49;;;;;;;5.70;4.23;;;6.60;99.90;;;;;;4990484;28;20233;-71
2024/02/27 03:16:16;;;;;;;4.27;3.53;;;6.60;99.90;;;;;;4990186;28;20305;-71
2024/02/27 03:18:43;;;;;;;4.13;3.73;;;6.60;99.90;;;;;;4990243;28;20257;-71
2024/02/27 03:21:10;;;;;;;3.33;3.13;;;6.60;99.90;;;;;;4989746;28;20308;-71
2024/02/27 03:23:37;;;;;;;3.70;3.40;;;6.60;99.90;;;;;;4990312;28;20210;-71
2024/02/27 03:26:04;;;;;;;3.77;3.47;;;6.50;99.90;;;;;;4990380;28;20245;-71
2024/02/27 03:28:31;;;;;;;3.90;3.47;;;6.50;99.90;;;;;;4990238;28;20811;-71
2024/02/27 03:30:59;;;;;;;4.10;3.80;;;6.50;99.90;;;;;;4989684;28;20210;-71
2024/02/27 03:33:26;;;;;;;4.10;3.70;;;6.50;99.90;;;;;;4989904;28;20306;-71
2024/02/27 03:35:53;;;;;;;3.77;3.47;;;6.50;99.90;;;;;;4989834;28;20216;-71
2024/02/27 03:38:19;;;;;;;4.03;3.63;;;6.50;99.90;;;;;;4989766;28;20308;-71
2024/02/27 03:40:46;;;;;;;3.73;3.40;;;6.50;99.90;;;;;;4987616;28;20348;-71
2024/02/27 03:43:13;;;;;;;3.83;3.33;;;6.50;99.90;;;;;;4970120;28;20207;-71
2024/02/27 03:45:40;;;;;;;3.40;3.20;;;6.40;99.90;;;;;;4970320;28;20246;-71
2024/02/27 03:48:08;;;;;;;3.97;3.33;;;6.40;99.90;;;;;;4975608;28;20665;-70
2024/02/27 03:50:35;;;;;;;3.80;3.50;;;6.30;99.90;;;;;;4981798;28;20213;-70
2024/02/27 03:53:02;;;;;;;3.57;3.27;;;6.30;99.90;;;;;;4989125;28;20301;-71
2024/02/27 03:55:29;;;;;;;3.60;3.40;;;6.30;99.90;;;;;;4988439;28;20293;-72
2024/02/27 03:57:56;;;;;;;3.83;3.53;;;6.30;99.90;;;;;;4969868;28;20269;-71
2024/02/27 04:00:23;;;;;;;3.80;3.50;;;6.30;99.90;;;;;;4969921;28;20325;-72
2024/02/27 04:02:50;;;;;;;3.93;3.67;;;6.30;99.90;;;;;;4969635;28;20574;-72
2024/02/27 04:05:18;;;;;;;4.00;3.63;;;6.30;99.90;;;;;;4969670;28;20631;-72
2024/02/27 04:07:45;;;;;;;4.97;3.77;;;6.30;99.90;;;;;;4969403;28;20758;-72
2024/02/27 04:10:12;;;;;;;4.00;3.70;;;6.30;99.90;;;;;;4969355;28;20638;-70
2024/02/27 04:12:39;;;;;;;4.00;3.60;;;6.20;99.90;;;;;;4970854;28;20506;-69
2024/02/27 04:15:07;;;;;;;4.13;3.83;;;6.20;99.90;;;;;;4969675;28;20318;-69
2024/02/27 04:17:34;;;;;;;3.70;3.40;;;6.20;99.90;;;;;;4969509;28;20741;-70
2024/02/27 04:20:01;;;;;;;3.97;3.67;;;6.30;99.90;;;;;;4985556;28;20309;-71
2024/02/27 04:22:29;;;;;;;4.57;3.87;;;6.20;99.90;;;;;;4988595;28;20240;-71
2024/02/27 04:24:56;;;;;;;4.13;3.73;;;6.20;99.90;;;;;;4988953;28;20202;-70
2024/02/27 04:27:23;;;;;;;4.43;4.03;;;6.20;99.90;;;;;;4988888;28;20229;-71
2024/02/27 04:29:51;;;;;;;4.73;4.33;;;6.20;99.90;;;;;;4988456;28;20210;-71
2024/02/27 04:32:18;;;;;;;4.10;3.80;;;6.20;99.90;;;;;;4988537;28;20717;-71
2024/02/27 04:34:45;;;;;;;4.50;4.10;;;6.20;99.90;;;;;;4988426;28;20241;-71
2024/02/27 04:37:12;;;;;;;4.47;4.07;;;6.20;99.90;;;;;;4988221;28;20744;-71
2024/02/27 04:39:44;;;;;;;4.57;4.17;;;6.20;99.90;;;;;;4987993;28;20337;-71
2024/02/27 04:42:11;;;;;;;4.37;4.03;;;6.20;99.90;;;;;;4988423;28;20308;-71
2024/02/27 04:44:38;;;;;;;4.33;4.00;;;6.30;99.90;;;;;;4988351;28;20301;-71
2024/02/27 04:47:05;;;;;;;4.53;4.20;;;6.20;99.90;;;;;;4987666;28;20914;-71
2024/02/27 04:49:32;;;;;;;5.17;4.60;;;6.20;99.90;;;;;;4988133;28;20221;-71
2024/02/27 04:51:59;;;;;;;5.27;4.77;;;6.20;99.90;;;;;;4980640;28;20218;-70
2024/02/27 04:54:26;;;;;;;5.07;4.57;;;6.20;99.90;;;;;;5001147;28;21018;-71
2024/02/27 04:56:54;;;;;;;5.10;4.70;;;6.20;99.90;;;;;;4988581;28;20918;-71
2024/02/27 04:59:21;;;;;;;5.37;4.70;;;6.20;99.90;;;;;;4988486;28;20305;-70
2024/02/27 05:01:48;;;;;;;4.67;4.27;;;6.20;99.90;;;;;;4988387;28;20248;-71
2024/02/27 05:04:16;;;;;;;5.37;4.97;;;6.20;99.90;;;;;;4988605;28;20210;-70
2024/02/27 05:06:43;;;;;;;4.83;4.33;;;6.20;99.90;;;;;;4988378;28;20214;-70
2024/02/27 05:09:10;;;;;;;5.60;5.10;;;6.10;99.90;;;;;;4988311;28;20296;-70
2024/02/27 05:11:37;;;;;;;5.57;5.17;;;6.10;99.90;;;;;;4988429;28;20202;-71
2024/02/27 05:14:05;;;;;;;6.20;5.60;;;6.10;99.90;;;;;;4987896;28;20308;-71
2024/02/27 05:16:32;;;;;;;6.37;5.77;;;6.10;99.90;;;;;;4988147;28;20214;-70
2024/02/27 05:19:00;;;;;;;7.97;6.30;;;6.00;99.90;;;;;;4988122;28;20906;-71
2024/02/27 05:21:28;;;;;;;7.20;6.07;;;6.00;99.90;;;;;;4987570;28;20768;-70
2024/02/27 05:23:54;;;;;;;7.30;6.00;;;6.00;99.90;;;;;;4987819;28;20206;-71
2024/02/27 05:26:21;;;;;;;8.13;6.50;;;6.00;99.90;;;;;;4987196;28;20293;-71
2024/02/27 05:28:48;;;;;;;6.27;5.60;;;6.00;99.90;;;;;;4987937;28;20293;-71
2024/02/27 05:31:25;;;;;;;6.83;6.13;;;6.00;99.90;;;;;;4987273;28;20297;-70
2024/02/27 05:33:52;;;;;;;8.77;6.93;;;5.90;99.90;;;;;;4987947;28;20613;-70
2024/02/27 05:36:20;;;;;;;7.47;6.50;;;6.00;99.90;;;;;;4987307;28;20302;-70
2024/02/27 05:38:47;;;;;;;7.87;6.60;;;6.00;99.90;;;;;;4987628;28;20293;-70
2024/02/27 05:41:14;;;;;;;8.83;7.13;;;5.90;99.90;;;;;;4987031;28;20332;-70
2024/02/27 05:43:41;;;;;;;7.10;6.33;;;5.90;99.90;;;;;;4987813;28;20217;-70
2024/02/27 05:46:09;;;;;;;8.47;6.90;;;5.90;99.90;;;;;;4980472;28;20234;-70
2024/02/27 05:48:38;;;;;;;7.60;6.90;;;5.90;99.90;;;;;;4973718;28;20230;-70
2024/02/27 05:51:05;;;;;;;7.80;7.00;;;5.90;99.90;;;;;;4986535;28;20206;-70
2024/02/27 05:53:34;;;;;;;7.67;6.50;;;5.80;99.90;;;;;;4987540;28;20329;-70
2024/02/27 05:56:01;;;;;;;7.53;6.77;;;5.80;99.90;;;;;;4987460;28;20555;-70
2024/02/27 05:58:28;;;;;;;7.90;7.20;;;5.80;99.90;;;;;;4986030;28;20210;-70
2024/02/27 06:00:56;;;;;;;12.20;8.17;;;5.80;99.90;;;;;;4987277;28;20325;-70
2024/02/27 06:03:23;;;;;;;8.60;7.17;;;5.80;99.90;;;;;;4977978;28;20321;-70
2024/02/27 06:05:52;;;;;;;9.00;8.10;;;5.80;99.90;;;;;;4976137;28;20563;-71
2024/02/27 06:08:20;;;;;;;10.20;8.13;;;5.70;99.90;;;;;;4976279;28;20302;-71
2024/02/27 06:10:47;;;;;;;12.17;8.20;;;5.70;99.90;;;;;;4976521;28;20231;-71
2024/02/27 06:13:14;;;;;;;9.00;8.07;;;5.80;99.90;;;;;;4975511;28;20272;-71
2024/02/27 06:15:44;;;;;;;8.77;7.90;;;5.70;99.90;;;;;;4969172;28;20294;-71
2024/02/27 06:18:13;;;;;;;8.87;7.80;;;5.70;99.90;;;;;;4978865;28;20780;-71
2024/02/27 06:23:27;;;;;;;9.63;8.60;;;5.70;99.90;;;;;;4976681;28;20225;-71
2024/02/27 06:25:54;;;;;;;10.03;8.97;;;5.70;99.90;;;;;;4978626;28;20209;-71
2024/02/27 06:28:22;;;;;;;11.13;8.50;;;5.70;99.90;;;;;;4969785;28;20720;-70
2024/02/27 06:30:49;;;;;;;11.90;8.97;;;5.70;99.90;;;;;;4976848;28;20203;-70
2024/02/27 06:33:15;;;;;;;10.90;8.73;;;5.70;99.90;;;;;;4977705;28;20198;-70
2024/02/27 06:35:43;;;;;;;12.93;9.40;;;5.70;99.90;;;;;;4973834;28;20758;-70
2024/02/27 06:38:09;;;;;;;12.40;9.23;;;5.60;99.90;;;;;;4986384;28;20305;-72
2024/02/27 06:40:38;;;;;;;10.53;9.43;;;5.60;99.90;;;;;;4978070;28;20223;-70
2024/02/27 06:43:05;;;;;;;11.27;9.90;;;5.70;99.90;;;;;;4978894;28;20747;-70
2024/02/27 06:45:32;;;;;;;11.77;10.33;;;5.60;99.90;;;;;;4981687;28;20206;-70
2024/02/27 06:47:59;;;;;;;13.73;11.43;;;5.70;99.90;;;;;;4979424;28;20239;-72
2024/02/27 06:50:26;;;;;;;14.73;12.33;;;5.70;99.90;;;;;;4981915;28;20743;-72
2024/02/27 06:52:53;;;;;;;15.23;12.33;;;5.60;99.90;;;;;;4981119;28;20297;-71
2024/02/27 06:55:20;;;;;;;14.87;12.80;;;5.60;99.90;;;;;;4987406;28;20293;-71
2024/02/27 06:57:49;;;;;;;18.87;12.43;;;5.60;99.90;;;;;;4984833;28;20294;-70
2024/02/27 07:00:16;;;;;;;18.00;12.47;;;5.60;99.90;;;;;;4970892;28;20298;-70
2024/02/27 07:02:43;;;;;;;16.80;12.90;;;5.60;99.90;;;;;;4970650;28;20230;-70
2024/02/27 07:05:10;;;;;;;14.80;12.97;;;5.70;99.90;;;;;;4970782;28;20684;-70
2024/02/27 07:07:37;;;;;;;15.77;12.60;;;5.70;99.90;;;;;;4970858;28;20301;-71
2024/02/27 07:10:04;;;;;;;15.87;12.43;;;5.70;99.90;;;;;;4970894;28;20202;-72
2024/02/27 07:12:32;;;;;;;15.47;12.07;;;5.80;99.90;;;;;;4971049;28;20302;-72
2024/02/27 07:15:01;;;;;;;15.10;12.73;;;5.80;99.90;;;;;;4972106;28;20203;-71
2024/02/27 07:17:29;;;;;;;14.83;12.43;;;5.80;99.90;;;;;;4974261;28;20229;-71
2024/02/27 07:19:57;;;;;;;16.20;12.90;;;5.80;99.90;;;;;;4987086;28;20624;-71
2024/02/27 07:22:24;;;;;;;14.47;12.10;;;5.80;99.90;;;;;;4989767;28;20321;-71
2024/02/27 07:24:52;;;;;;;16.10;12.93;;;5.80;99.90;;;;;;4989488;28;20206;-70
2024/02/27 07:27:19;;;;;;;16.90;12.93;;;5.90;99.90;;;;;;4970672;28;20217;-70
2024/02/27 07:29:45;;;;;;;15.50;12.40;;;5.80;99.90;;;;;;4970677;28;20242;-71
2024/02/27 07:32:14;;;;;;;17.10;13.13;;;5.90;99.90;;;;;;4970642;28;20218;-71
2024/02/27 07:34:42;;;;;;;16.20;12.83;;;5.90;99.90;;;;;;5004900;28;20205;-71
2024/02/27 07:37:10;;;;;;;16.67;13.50;;;5.90;99.90;;;;;;5009012;28;20216;-71
2024/02/27 07:39:37;;;;;;;14.40;12.77;;;6.00;99.90;;;;;;5009164;28;20252;-70
2024/02/27 07:42:04;;;;;;;18.00;13.03;;;6.00;99.90;;;;;;4995273;28;20240;-71
2024/02/27 07:44:31;;;;;;;15.23;13.30;;;6.00;99.90;;;;;;4989912;28;20297;-71
2024/02/27 07:46:57;;;;;;;15.70;13.23;;;6.00;99.90;;;;;;4989411;28;20765;-72
2024/02/27 07:49:26;;;;;;;15.77;12.97;;;6.00;99.90;;;;;;4989368;28;20683;-71
2024/02/27 07:51:53;;;;;;;13.83;12.10;;;6.00;99.90;;;;;;4989612;28;20297;-71
2024/02/27 07:54:21;;;;;;;15.30;13.07;;;6.00;99.90;;;;;;4988006;28;20217;-71
2024/02/27 07:56:48;;;;;;;19.27;12.83;;;5.90;99.90;;;;;;4989910;28;20292;-71
2024/02/27 07:59:16;;;;;;;19.53;13.03;;;6.00;99.90;;;;;;4989787;28;20241;-71
2024/02/27 08:01:43;;;;;;;17.97;13.30;;;6.00;99.90;;;;;;4989327;28;20700;-71
2024/02/27 08:04:10;;;;;;;17.27;13.53;;;6.00;99.90;;;;;;4989369;28;20304;-71
2024/02/27 08:06:39;;;;;;;14.67;11.77;;;6.10;99.90;;;;;;4989135;28;20212;-71
2024/02/27 08:09:06;;;;;;;16.80;13.03;;;6.10;99.90;;;;;;4989103;28;20695;-72
2024/02/27 08:11:33;;;;;;;16.27;13.23;;;6.10;99.90;;;;;;4989495;28;20220;-71
2024/02/27 08:14:01;;;;;;;16.63;12.70;;;6.10;99.90;;;;;;4989060;28;20230;-72
2024/02/27 08:16:28;;;;;;;22.40;13.77;;;6.10;99.90;;;;;;4989547;28;20210;-71
2024/02/27 08:18:55;;;;;;;22.57;13.43;;;6.10;99.90;;;;;;4989173;28;20240;-72
2024/02/27 08:21:22;;;;;;;16.60;12.80;;;6.10;99.90;;;;;;4977512;28;20207;-71
2024/02/27 08:23:50;;;;;;;17.47;13.40;;;6.10;99.90;;;;;;4969336;28;20301;-71
2024/02/27 08:26:17;;;;;;;15.33;12.33;;;6.10;99.90;;;;;;4969700;28;20306;-74
2024/02/27 08:28:44;;;;;;;17.13;13.23;;;6.10;99.90;;;;;;4971897;28;20257;-73
2024/02/27 08:31:11;;;;;;;18.60;13.50;;;6.10;99.90;;;;;;4984742;28;20773;-73
2024/02/27 08:33:38;;;;;;;17.27;12.93;;;6.20;99.90;;;;;;4969584;28;20269;-73
2024/02/27 08:36:06;;;;;;;18.03;12.33;;;6.20;99.90;;;;;;4968745;28;20301;-73
2024/02/27 08:38:33;;;;;;;18.00;13.40;;;6.20;99.90;;;;;;4982649;28;20250;-72
2024/02/27 08:41:03;;;;;;;18.90;13.50;;;6.30;99.90;;;;;;4967479;28;20219;-72
2024/02/27 08:43:30;;;;;;;16.87;13.20;;;6.30;99.90;;;;;;4972094;28;20232;-73
2024/02/27 08:45:57;;;;;;;16.10;13.23;;;6.30;99.90;;;;;;4986768;28;20659;-73
2024/02/27 08:48:24;;;;;;;17.60;14.00;;;6.30;99.90;;;;;;4986183;28;20273;-73
2024/02/27 08:50:51;;;;;;;16.23;13.23;;;6.30;99.90;;;;;;4986524;28;20306;-73
2024/02/27 08:53:18;;;;;;;17.80;13.60;;;6.30;99.90;;;;;;4986346;28;20653;-73
2024/02/27 08:55:45;;;;;;;18.07;13.43;;;6.30;99.90;;;;;;4986835;28;20210;-73
2024/02/27 08:58:13;;;;;;;17.83;13.93;;;6.30;99.90;;;;;;4986786;28;20325;-73
2024/02/27 09:00:40;;;;;;;18.90;14.70;;;6.30;99.90;;;;;;4986628;28;20210;-73
2024/02/27 09:03:08;;;;;;;16.70;13.17;;;6.40;99.90;;;;;;4975091;28;20231;-73
2024/02/27 09:05:35;;;;;;;18.67;14.00;;;6.40;99.90;;;;;;4966559;28;20305;-73
2024/02/27 09:08:02;;;;;;;17.47;14.53;;;6.40;99.90;;;;;;4966866;28;20305;-73
2024/02/27 09:10:29;;;;;;;19.17;14.40;;;6.40;99.90;;;;;;4967077;28;20675;-73
2024/02/27 09:12:56;;;;;;;16.97;13.77;;;6.50;99.90;;;;;;4967260;28;20297;-73
2024/02/27 09:15:25;;;;;;;17.70;14.20;;;6.50;99.90;;;;;;4966641;28;20206;-73
2024/02/27 09:17:51;;;;;;;20.23;13.63;;;6.50;99.90;;;;;;4966874;28;20305;-73
2024/02/27 09:20:19;;;;;;;18.67;13.90;;;6.50;99.90;;;;;;4986320;28;20260;-73
2024/02/27 09:22:46;;;;;;;18.43;13.80;;;6.50;99.90;;;;;;4980028;28;20241;-73
2024/02/27 09:25:13;;;;;;;17.07;13.87;;;6.50;99.90;;;;;;4970076;28;20241;-73
2024/02/27 09:27:40;;;;;;;16.27;12.97;;;6.60;99.90;;;;;;4977210;28;20952;-73
2024/02/27 09:30:12;;;;;;;23.50;14.50;;;6.60;99.90;;;;;;4966179;28;20482;-73
2024/02/27 09:32:40;;;;;;;18.93;13.70;;;6.60;99.90;;;;;;4966264;28;20289;-73
2024/02/27 09:35:08;;;;;;;17.03;14.23;;;6.60;99.90;;;;;;4970588;28;20220;-73
2024/02/27 09:37:36;;;;;;;16.47;12.73;;;6.60;99.90;;;;;;4985398;28;20221;-73
2024/02/27 09:40:04;;;;;;;14.90;12.57;;;6.60;99.90;;;;;;4973604;28;20333;-72
2024/02/27 09:42:31;;;;;;;15.43;12.73;;;6.70;99.90;;;;;;4967239;28;20231;-73
2024/02/27 09:44:59;;;;;;;15.87;13.00;;;6.70;99.90;;;;;;4965551;28;20658;-73
2024/02/27 09:47:27;;;;;;;16.27;13.20;;;6.70;99.90;;;;;;4980841;28;20242;-73
2024/02/27 09:49:58;;;;;;;14.50;12.93;;;6.70;99.90;;;;;;4984880;28;20305;-73
2024/02/27 09:52:26;;;;;;;17.67;13.40;;;6.70;99.90;;;;;;4980803;28;20645;-73
2024/02/27 09:54:54;;;;;;;15.93;12.70;;;6.70;99.90;;;;;;4985501;28;20211;-73
2024/02/27 09:57:20;;;;;;;19.03;13.13;;;6.70;99.90;;;;;;4980766;28;20238;-73
2024/02/27 09:59:49;;;;;;;21.37;13.33;;;6.70;99.90;;;;;;4981708;28;20337;-73
2024/02/27 10:02:16;;;;;;;16.37;12.70;;;6.80;99.90;;;;;;4978359;28;20303;-73
2024/02/27 10:04:43;;;;;;;15.07;12.30;;;6.80;99.90;;;;;;4983132;28;20210;-73
2024/02/27 10:07:13;;;;;;;14.27;12.50;;;6.70;99.90;;;;;;4984566;28;20288;-73
2024/02/27 10:09:44;;;;;;;16.80;12.73;;;6.80;99.90;;;;;;4987631;28;20213;-75
2024/02/27 10:12:13;;;;;;;14.97;12.67;;;6.80;99.90;;;;;;4986854;28;20202;-73
2024/02/27 10:14:40;;;;;;;15.13;12.73;;;6.80;99.90;;;;;;4986982;28;20242;-73
2024/02/27 10:17:09;;;;;;;15.60;12.33;;;6.90;99.90;;;;;;4988089;28;20285;-76
2024/02/27 10:19:37;;;;;;;15.30;12.57;;;6.90;99.90;;;;;;4991325;28;20301;-73
2024/02/27 10:22:04;;;;;;;14.97;12.10;;;6.90;99.90;;;;;;4990209;28;20213;-73
2024/02/27 10:24:32;;;;;;;14.30;12.03;;;7.00;99.90;;;;;;4978318;28;20305;-73
2024/02/27 10:27:02;;;;;;;16.63;12.17;;;7.00;99.90;;;;;;4971945;28;20297;-73
2024/02/27 10:29:30;;;;;;;18.70;13.37;;;7.00;99.90;;;;;;4976940;28;20272;-73
2024/02/27 10:31:58;;;;;;;14.93;13.13;;;7.00;99.90;;;;;;4971284;28;20666;-73
2024/02/27 10:34:29;;;;;;;14.00;12.50;;;7.00;99.90;;;;;;4984619;28;20209;-73
2024/02/27 10:37:00;;;;;;;16.17;12.43;;;7.10;99.90;;;;;;4990888;28;20195;-73
2024/02/27 10:39:28;;;;;;;15.00;12.63;;;7.10;99.90;;;;;;4989253;28;20340;-73
2024/02/27 10:41:57;;;;;;;14.47;12.50;;;7.10;99.90;;;;;;4990910;28;20305;-73
2024/02/27 10:44:24;;;;;;;15.93;12.50;;;7.20;99.90;;;;;;4988538;28;20226;-73
2024/02/27 10:46:51;;;;;;;14.90;12.20;;;7.10;99.90;;;;;;4989214;28;20305;-73
2024/02/27 10:49:18;;;;;;;16.83;12.67;;;7.10;99.90;;;;;;4990328;28;20978;-73
2024/02/27 10:51:46;;;;;;;15.50;12.43;;;7.10;99.90;;;;;;4990775;28;20297;-73
2024/02/27 10:54:16;;;;;;;14.53;12.70;;;7.10;99.90;;;;;;4988702;28;20209;-73
2024/02/27 10:56:43;;;;;;;15.50;12.93;;;7.10;99.90;;;;;;4988787;28;20732;-73
2024/02/27 10:59:11;;;;;;;27.50;13.50;;;7.10;99.90;;;;;;4990085;28;20687;-73
2024/02/27 11:01:41;;;;;;;14.33;11.97;;;7.10;99.90;;;;;;4986745;28;20298;-73
2024/02/27 11:04:25;;;;;;;14.73;11.87;;;7.20;99.90;;;;;;4981423;28;20238;-73
2024/02/27 11:06:54;;;;;;;13.90;11.63;;;7.20;99.90;;;;;;4980554;28;20289;-73
2024/02/27 11:09:26;;;;;;;14.97;11.90;;;7.20;99.90;;;;;;4979304;28;20581;-73
2024/02/27 11:11:57;;;;;;;16.00;12.70;;;7.30;99.90;;;;;;4977836;28;20675;-73
2024/02/27 11:14:26;;;;;;;14.50;12.13;;;7.30;99.90;;;;;;4979297;28;20218;-74
2024/02/27 11:17:00;;;;;;;14.73;11.50;;;7.30;99.90;;;;;;4980392;28;20211;-73
2024/02/27 11:19:31;;;;;;;13.10;11.70;;;7.30;99.90;;;;;;4984242;28;20879;-73
2024/02/27 11:21:59;;;;;;;13.90;11.50;;;7.40;99.90;;;;;;4978459;28;20615;-73
2024/02/27 11:24:27;;;;;;;14.80;11.53;;;7.40;99.90;;;;;;4977975;28;20422;-73
2024/02/27 11:26:54;;;;;;;14.00;11.50;;;7.40;99.90;;;;;;4981013;28;20234;-73
2024/02/27 11:29:21;;;;;;;13.27;10.70;;;7.40;99.90;;;;;;4981922;28;20296;-73
2024/02/27 11:31:51;;;;;;;13.37;11.77;;;7.40;99.90;;;;;;4979910;28;20334;-73
2024/02/27 11:34:23;;;;;;;12.70;10.80;;;7.40;99.90;;;;;;4983559;28;20285;-73
2024/02/27 11:37:09;;;;;;;11.67;10.43;;;7.40;99.90;;;;;;4975810;28;20199;-73
2024/02/27 11:39:36;;;;;;;12.53;10.20;;;7.40;99.90;;;;;;4978285;28;20415;-73
2024/02/27 11:42:05;;;;;;;11.73;10.53;;;7.40;99.90;;;;;;4989553;28;20257;-73
2024/02/27 11:44:32;;;;;;;12.33;10.93;;;7.40;99.90;;;;;;4978141;28;20234;-73
2024/02/27 11:47:00;;;;;;;11.17;10.07;;;7.40;99.90;;;;;;4985951;28;20329;-73
2024/02/27 11:49:40;;;;;;;11.40;9.87;;;7.40;99.90;;;;;;4986705;28;20293;-73
2024/02/27 11:52:07;;;;;;;10.77;9.77;;;7.50;99.90;;;;;;4978718;28;20202;-73
2024/02/27 11:54:35;;;;;;;10.60;9.50;;;7.50;99.90;;;;;;4977464;28;20210;-73
2024/02/27 11:57:03;;;;;;;10.43;9.20;;;7.50;99.90;;;;;;4971131;28;20214;-73
2024/02/27 11:59:31;;;;;;;9.80;8.80;;;7.50;99.90;;;;;;4979528;28;20207;-73
2024/02/27 12:02:04;;;;;;;9.90;8.90;;;7.50;99.90;;;;;;4975350;28;20318;-73
2024/02/27 12:04:31;;;;;;;9.77;8.77;;;7.50;99.90;;;;;;4982612;28;20229;-73
2024/02/27 12:06:58;;;;;;;9.73;8.73;;;7.50;99.90;;;;;;4985287;28;20230;-73
2024/02/27 12:09:25;;;;;;;9.63;8.63;;;7.50;99.90;;;;;;4970469;28;20297;-73
2024/02/27 12:11:53;;;;;;;10.37;8.90;;;7.50;99.90;;;;;;4982903;28;20217;-73
2024/02/27 12:14:20;;;;;;;9.03;8.23;;;7.50;99.90;;;;;;4978907;28;20691;-73
2024/02/27 12:16:48;;;;;;;9.00;8.03;;;7.50;99.90;;;;;;4982219;28;20296;-71
2024/02/27 12:19:16;;;;;;;9.17;8.23;;;7.60;99.90;;;;;;4978138;28;20551;-72
2024/02/27 12:21:43;;;;;;;8.93;7.57;;;7.60;99.90;;;;;;4974805;28;20218;-72
2024/02/27 12:24:15;;;;;;;9.57;8.57;;;7.50;99.90;;;;;;4982938;28;20317;-74
2024/02/27 12:26:42;;;;;;;8.40;7.50;;;7.50;99.90;;;;;;4977862;28;20194;-72
2024/02/27 12:29:09;;;;;;;8.57;7.63;;;7.50;99.90;;;;;;4977965;28;20294;-73
2024/02/27 12:31:37;;;;;;;7.93;7.17;;;7.50;99.90;;;;;;4980575;28;20250;-76
2024/02/27 12:34:05;;;;;;;8.10;7.40;;;7.50;99.90;;;;;;4980196;28;20270;-76
2024/02/27 12:36:34;;;;;;;7.93;7.23;;;7.50;99.90;;;;;;4977295;28;20258;-73
2024/02/27 12:39:02;;;;;;;8.47;7.77;;;7.50;99.90;;;;;;4976945;28;20518;-72
2024/02/27 12:41:29;;;;;;;8.43;7.17;;;7.60;99.90;;;;;;4978432;28;20203;-74
2024/02/27 12:43:56;;;;;;;8.30;7.50;;;7.60;99.90;;;;;;4978289;28;20218;-72
2024/02/27 12:46:23;;;;;;;7.73;7.03;;;7.60;99.90;;;;;;4977005;28;20233;-72
2024/02/27 12:48:51;;;;;;;9.73;7.83;;;7.60;99.90;;;;;;4978594;28;20609;-72
2024/02/27 12:51:18;;;;;;;11.70;7.87;;;7.60;99.90;;;;;;4979125;28;21005;-72
2024/02/27 12:53:47;;;;;;;8.20;7.40;;;7.60;99.90;;;;;;4978343;28;20699;-72